Time,TemperatureF,DewpointF,PressureIn,WindDirection,WindDirectionDegrees,WindSpeedMPH,WindSpeedGustMPH,Humidity,HourlyPrecipIn,Conditions,Clouds,dailyrainin,SoftwareType,DateUTC
2013-01-12 00:02:00,34.0,-99.9,30.29,East,98,8.0,11.0,-999,-99.99,,,-99.99,,2013-01-12 08:02:00,
2013-01-12 00:12:00,34.0,-99.9,30.30,East,98,7.0,9.0,-999,-99.99,,,-99.99,,2013-01-12 08:12:00,
2013-01-12 00:22:00,34.0,-99.9,30.30,East,101,8.0,9.0,-999,-99.99,,,-99.99,,2013-01-12 08:22:00,
2013-01-12 00:32:00,34.0,-99.9,30.30,ESE,105,9.0,11.0,-999,-99.99,,,-99.99,,2013-01-12 08:32:00,
2013-01-12 00:42:00,35.0,-99.9,30.30,ESE,103,8.0,10.0,-999,-99.99,,,-99.99,,2013-01-12 08:42:00,
2013-01-12 00:53:00,34.0,-99.9,30.30,ESE,108,10.0,12.0,-999,-99.99,,,-99.99,,2013-01-12 08:53:00,
2013-01-12 01:02:00,34.0,-99.9,30.30,East,100,8.0,11.0,-999,-99.99,,,-99.99,,2013-01-12 09:02:00,
2013-01-12 01:12:00,34.0,-99.9,30.30,ESE,108,8.0,10.0,-999,-99.99,,,-99.99,,2013-01-12 09:12:00,
2013-01-12 01:22:00,34.0,-99.9,30.30,ESE,103,8.0,10.0,-999,-99.99,,,-99.99,,2013-01-12 09:22:00,
2013-01-12 01:33:00,34.0,-99.9,30.30,ESE,109,9.0,11.0,-999,-99.99,,,-99.99,,2013-01-12 09:33:00,
2013-01-12 01:43:00,34.0,-99.9,30.30,ESE,109,10.0,12.0,-999,-99.99,,,-99.99,,2013-01-12 09:43:00,
2013-01-12 01:53:00,34.0,-99.9,30.30,ESE,112,11.0,12.0,-999,-99.99,,,-99.99,,2013-01-12 09:53:00,
2013-01-12 02:02:00,34.0,-99.9,30.30,ESE,110,11.0,12.0,-999,-99.99,,,-99.99,,2013-01-12 10:02:00,
2013-01-12 02:12:00,33.0,-99.9,30.29,East,101,10.0,13.0,-999,-99.99,,,-99.99,,2013-01-12 10:12:00,
2013-01-12 02:22:00,33.0,-99.9,30.29,East,101,10.0,12.0,-999,-99.99,,,-99.99,,2013-01-12 10:22:00,
2013-01-12 02:32:00,34.0,-99.9,30.29,East,98,9.0,13.0,-999,-99.99,,,-99.99,,2013-01-12 10:32:00,
2013-01-12 02:43:00,33.0,-99.9,30.30,ESE,102,11.0,13.0,-999,-99.99,,,-99.99,,2013-01-12 10:43:00,
2013-01-12 02:52:00,34.0,-99.9,30.30,East,97,11.0,13.0,-999,-99.99,,,-99.99,,2013-01-12 10:52:00,
2013-01-12 03:02:00,33.0,-99.9,30.30,East,99,11.0,13.0,-999,-99.99,,,-99.99,,2013-01-12 11:02:00,
2013-01-12 03:12:00,34.0,-99.9,30.30,ESE,102,11.0,13.0,-999,-99.99,,,-99.99,,2013-01-12 11:12:00,
2013-01-12 03:22:00,33.0,-99.9,30.30,East,101,12.0,14.0,-999,-99.99,,,-99.99,,2013-01-12 11:22:00,
2013-01-12 03:33:00,34.0,-99.9,30.30,ESE,103,12.0,14.0,-999,-99.99,,,-99.99,,2013-01-12 11:33:00,
2013-01-12 03:43:00,34.0,-99.9,30.30,ESE,103,11.0,14.0,-999,-99.99,,,-99.99,,2013-01-12 11:43:00,
2013-01-12 03:53:00,34.0,-99.9,30.29,ESE,107,11.0,13.0,-999,-99.99,,,-99.99,,2013-01-12 11:53:00,
2013-01-12 04:03:00,34.0,-99.9,30.29,ESE,106,11.0,13.0,-999,-99.99,,,-99.99,,2013-01-12 12:03:00,
2013-01-12 04:12:00,34.0,-99.9,30.29,ESE,106,10.0,12.0,-999,-99.99,,,-99.99,,2013-01-12 12:12:00,
2013-01-12 04:22:00,34.0,-99.9,30.29,ESE,108,11.0,13.0,-999,-99.99,,,-99.99,,2013-01-12 12:22:00,
2013-01-12 04:33:00,34.0,-99.9,30.29,ESE,111,11.0,12.0,-999,-99.99,,,-99.99,,2013-01-12 12:33:00,
2013-01-12 04:43:00,34.0,-99.9,30.29,ESE,109,11.0,12.0,-999,-99.99,,,-99.99,,2013-01-12 12:43:00,
2013-01-12 04:53:00,34.0,-99.9,30.29,ESE,103,11.0,12.0,-999,-99.99,,,-99.99,,2013-01-12 12:53:00,
2013-01-12 05:03:00,34.0,-99.9,30.28,ESE,106,11.0,13.0,-999,-99.99,,,-99.99,,2013-01-12 13:03:00,
2013-01-12 05:12:00,34.0,-99.9,30.29,ESE,108,9.0,12.0,-999,-99.99,,,-99.99,,2013-01-12 13:12:00,
2013-01-12 05:23:00,34.0,-99.9,30.29,ESE,104,10.0,12.0,-999,-99.99,,,-99.99,,2013-01-12 13:23:00,
2013-01-12 05:33:00,34.0,-99.9,30.29,ESE,108,10.0,12.0,-999,-99.99,,,-99.99,,2013-01-12 13:33:00,
2013-01-12 05:43:00,34.0,-99.9,30.29,ESE,103,10.0,12.0,-999,-99.99,,,-99.99,,2013-01-12 13:43:00,
2013-01-12 05:53:00,34.0,-99.9,30.29,East,101,10.0,12.0,-999,-99.99,,,-99.99,,2013-01-12 13:53:00,
2013-01-12 06:02:00,34.0,-99.9,30.29,ESE,104,12.0,13.0,-999,-99.99,,,-99.99,,2013-01-12 14:02:00,
2013-01-12 06:12:00,34.0,-99.9,30.29,East,99,10.0,13.0,-999,-99.99,,,-99.99,,2013-01-12 14:12:00,
2013-01-12 06:22:00,34.0,-99.9,30.29,East,99,10.0,13.0,-999,-99.99,,,-99.99,,2013-01-12 14:22:00,
2013-01-12 06:33:00,33.0,-99.9,30.29,ESE,102,11.0,13.0,-999,-99.99,,,-99.99,,2013-01-12 14:33:00,
2013-01-12 06:43:00,34.0,-99.9,30.29,East,101,10.0,12.0,-999,-99.99,,,-99.99,,2013-01-12 14:43:00,
2013-01-12 06:53:00,34.0,-99.9,30.29,ESE,103,10.0,13.0,-999,-99.99,,,-99.99,,2013-01-12 14:53:00,
2013-01-12 07:03:00,34.0,-99.9,30.29,ESE,108,10.0,12.0,-999,-99.99,,,-99.99,,2013-01-12 15:03:00,
2013-01-12 07:13:00,33.0,-99.9,30.29,East,101,10.0,11.0,-999,-99.99,,,-99.99,,2013-01-12 15:13:00,
2013-01-12 07:23:00,34.0,-99.9,30.30,East,100,9.0,12.0,-999,-99.99,,,-99.99,,2013-01-12 15:23:00,
2013-01-12 07:34:00,34.0,-99.9,30.30,East,100,9.0,12.0,-999,-99.99,,,-99.99,,2013-01-12 15:34:00,
2013-01-12 07:43:00,34.0,-99.9,30.30,East,100,9.0,12.0,-999,-99.99,,,-99.99,,2013-01-12 15:43:00,
2013-01-12 07:53:00,33.0,-99.9,30.31,East,97,8.0,10.0,-999,-99.99,,,-99.99,,2013-01-12 15:53:00,
2013-01-12 08:03:00,33.0,-99.9,30.31,East,97,8.0,10.0,-999,-99.99,,,-99.99,,2013-01-12 16:03:00,
2013-01-12 08:13:00,33.0,-99.9,30.31,East,97,8.0,10.0,-999,-99.99,,,-99.99,,2013-01-12 16:13:00,
2013-01-12 08:23:00,33.0,-99.9,30.31,East,97,8.0,10.0,-999,-99.99,,,-99.99,,2013-01-12 16:23:00,
2013-01-12 08:33:00,33.0,-99.9,30.32,East,99,9.0,11.0,-999,-99.99,,,-99.99,,2013-01-12 16:33:00,
2013-01-12 08:43:00,33.0,-99.9,30.32,East,100,8.0,11.0,-999,-99.99,,,-99.99,,2013-01-12 16:43:00,
2013-01-12 08:53:00,33.0,-99.9,30.32,ESE,108,10.0,11.0,-999,-99.99,,,-99.99,,2013-01-12 16:53:00,
2013-01-12 09:03:00,33.0,-99.9,30.32,ESE,108,10.0,11.0,-999,-99.99,,,-99.99,,2013-01-12 17:03:00,
2013-01-12 09:13:00,33.0,-99.9,30.32,ESE,108,10.0,11.0,-999,-99.99,,,-99.99,,2013-01-12 17:13:00,
2013-01-12 09:23:00,33.0,-99.9,30.32,ESE,108,10.0,11.0,-999,-99.99,,,-99.99,,2013-01-12 17:23:00,
2013-01-12 10:33:00,35.0,-99.9,30.34,East,99,9.0,12.0,-999,-99.99,,,-99.99,,2013-01-12 18:33:00,
2013-01-12 10:43:00,35.0,-99.9,30.34,East,98,9.0,13.0,-999,-99.99,,,-99.99,,2013-01-12 18:43:00,
2013-01-12 10:53:00,35.0,-99.9,30.34,ESE,103,12.0,14.0,-999,-99.99,,,-99.99,,2013-01-12 18:53:00,
2013-01-12 11:03:00,35.0,-99.9,30.34,East,98,10.0,14.0,-999,-99.99,,,-99.99,,2013-01-12 19:03:00,
2013-01-12 11:12:00,35.0,-99.9,30.34,East,100,10.0,14.0,-999,-99.99,,,-99.99,,2013-01-12 19:12:00,
2013-01-12 11:23:00,35.0,-99.9,30.34,East,97,9.0,11.0,-999,-99.99,,,-99.99,,2013-01-12 19:23:00,
2013-01-12 11:33:00,36.0,-99.9,30.34,East,99,9.0,12.0,-999,-99.99,,,-99.99,,2013-01-12 19:33:00,
2013-01-12 11:43:00,36.0,-99.9,30.34,East,98,8.0,11.0,-999,-99.99,,,-99.99,,2013-01-12 19:43:00,
2013-01-12 11:53:00,37.0,-99.9,30.34,ESE,102,9.0,12.0,-999,-99.99,,,-99.99,,2013-01-12 19:53:00,
2013-01-12 12:03:00,38.0,-99.9,30.33,East,95,3.0,8.0,-999,-99.99,,,-99.99,,2013-01-12 20:03:00,
2013-01-12 12:13:00,38.0,-99.9,30.33,East,93,6.0,9.0,-999,-99.99,,,-99.99,,2013-01-12 20:13:00,
2013-01-12 12:22:00,37.0,-99.9,30.32,East,95,9.0,11.0,-999,-99.99,,,-99.99,,2013-01-12 20:22:00,
2013-01-12 12:33:00,37.0,-99.9,30.32,East,98,8.0,11.0,-999,-99.99,,,-99.99,,2013-01-12 20:33:00,
2013-01-12 12:43:00,38.0,-99.9,30.32,ESE,103,9.0,11.0,-999,-99.99,,,-99.99,,2013-01-12 20:43:00,
2013-01-12 12:53:00,38.0,-99.9,30.32,East,92,6.0,9.0,-999,-99.99,,,-99.99,,2013-01-12 20:53:00,
2013-01-12 13:03:00,39.0,-99.9,30.32,East,90,6.0,10.0,-999,-99.99,,,-99.99,,2013-01-12 21:03:00,
2013-01-12 13:12:00,39.0,-99.9,30.32,East,98,7.0,9.0,-999,-99.99,,,-99.99,,2013-01-12 21:12:00,
2013-01-12 13:22:00,39.0,-99.9,30.32,East,99,9.0,11.0,-999,-99.99,,,-99.99,,2013-01-12 21:22:00,
2013-01-12 13:33:00,40.0,-99.9,30.31,East,98,9.0,11.0,-999,-99.99,,,-99.99,,2013-01-12 21:33:00,
2013-01-12 13:43:00,40.0,-99.9,30.32,East,98,7.0,10.0,-999,-99.99,,,-99.99,,2013-01-12 21:43:00,
2013-01-12 13:53:00,41.0,-99.9,30.31,East,101,6.0,10.0,-999,-99.99,,,-99.99,,2013-01-12 21:53:00,
2013-01-12 14:03:00,41.0,-99.9,30.31,ESE,102,6.0,9.0,-999,-99.99,,,-99.99,,2013-01-12 22:03:00,
2013-01-12 14:12:00,42.0,-99.9,30.31,East,89,3.0,10.0,-999,-99.99,,,-99.99,,2013-01-12 22:12:00,
2013-01-12 14:23:00,42.0,-99.9,30.31,ESE,105,6.0,8.0,-999,-99.99,,,-99.99,,2013-01-12 22:23:00,
2013-01-12 14:33:00,42.0,-99.9,30.32,East,89,4.0,10.0,-999,-99.99,,,-99.99,,2013-01-12 22:33:00,
2013-01-12 14:44:00,42.0,-99.9,30.32,East,99,7.0,9.0,-999,-99.99,,,-99.99,,2013-01-12 22:44:00,
2013-01-12 14:53:00,42.0,-99.9,30.32,ESE,104,9.0,11.0,-999,-99.99,,,-99.99,,2013-01-12 22:53:00,
2013-01-12 15:03:00,42.0,-99.9,30.32,East,94,5.0,9.0,-999,-99.99,,,-99.99,,2013-01-12 23:03:00,
2013-01-12 15:13:00,42.0,-99.9,30.33,ESE,102,8.0,12.0,-999,-99.99,,,-99.99,,2013-01-12 23:13:00,
2013-01-12 15:23:00,42.0,-99.9,30.33,ESE,103,7.0,10.0,-999,-99.99,,,-99.99,,2013-01-12 23:23:00,
2013-01-12 15:33:00,42.0,-99.9,30.33,ESE,108,6.0,9.0,-999,-99.99,,,-99.99,,2013-01-12 23:33:00,
2013-01-12 15:43:00,42.0,-99.9,30.33,ESE,102,6.0,10.0,-999,-99.99,,,-99.99,,2013-01-12 23:43:00,
2013-01-12 15:53:00,42.0,-99.9,30.33,ESE,109,8.0,9.0,-999,-99.99,,,-99.99,,2013-01-12 23:53:00,
2013-01-12 16:03:00,42.0,-99.9,30.33,ESE,109,7.0,10.0,-999,-99.99,,,-99.99,,2013-01-13 00:03:00,
2013-01-12 16:12:00,42.0,-99.9,30.33,East,99,6.0,9.0,-999,-99.99,,,-99.99,,2013-01-13 00:12:00,
2013-01-12 16:23:00,42.0,-99.9,30.33,East,93,5.0,8.0,-999,-99.99,,,-99.99,,2013-01-13 00:23:00,
2013-01-12 16:33:00,42.0,-99.9,30.33,East,92,4.0,6.0,-999,-99.99,,,-99.99,,2013-01-13 00:33:00,
2013-01-12 16:43:00,42.0,-99.9,30.33,ESE,104,7.0,8.0,-999,-99.99,,,-99.99,,2013-01-13 00:43:00,
2013-01-12 16:53:00,42.0,-99.9,30.33,East,95,5.0,7.0,-999,-99.99,,,-99.99,,2013-01-13 00:53:00,
2013-01-12 17:03:00,42.0,-99.9,30.34,East,86,4.0,8.0,-999,-99.99,,,-99.99,,2013-01-13 01:03:00,
2013-01-12 17:12:00,42.0,-99.9,30.34,ENE,76,3.0,7.0,-999,-99.99,,,-99.99,,2013-01-13 01:12:00,
2013-01-12 17:23:00,41.0,-99.9,30.34,East,91,5.0,7.0,-999,-99.99,,,-99.99,,2013-01-13 01:23:00,
2013-01-12 17:33:00,41.0,-99.9,30.34,East,79,2.0,6.0,-999,-99.99,,,-99.99,,2013-01-13 01:33:00,
2013-01-12 17:43:00,40.0,-99.9,30.34,East,81,4.0,7.0,-999,-99.99,,,-99.99,,2013-01-13 01:43:00,
2013-01-12 17:53:00,40.0,-99.9,30.35,East,91,6.0,7.0,-999,-99.99,,,-99.99,,2013-01-13 01:53:00,
2013-01-12 18:03:00,39.0,-99.9,30.35,East,87,4.0,5.0,-999,-99.99,,,-99.99,,2013-01-13 02:03:00,
2013-01-12 18:13:00,39.0,-99.9,30.35,East,91,4.0,5.0,-999,-99.99,,,-99.99,,2013-01-13 02:13:00,
2013-01-12 18:23:00,39.0,-99.9,30.35,East,91,6.0,8.0,-999,-99.99,,,-99.99,,2013-01-13 02:23:00,
2013-01-12 18:33:00,39.0,-99.9,30.35,East,85,4.0,6.0,-999,-99.99,,,-99.99,,2013-01-13 02:33:00,
2013-01-12 18:43:00,38.0,-99.9,30.35,East,94,6.0,7.0,-999,-99.99,,,-99.99,,2013-01-13 02:43:00,
2013-01-12 18:53:00,38.0,-99.9,30.35,East,90,6.0,8.0,-999,-99.99,,,-99.99,,2013-01-13 02:53:00,
2013-01-12 19:03:00,38.0,-99.9,30.35,East,90,5.0,7.0,-999,-99.99,,,-99.99,,2013-01-13 03:03:00,
2013-01-12 19:12:00,37.0,-99.9,30.35,East,95,6.0,9.0,-999,-99.99,,,-99.99,,2013-01-13 03:12:00,
2013-01-12 19:22:00,37.0,-99.9,30.35,East,88,6.0,10.0,-999,-99.99,,,-99.99,,2013-01-13 03:22:00,
2013-01-12 19:33:00,37.0,-99.9,30.35,East,88,6.0,9.0,-999,-99.99,,,-99.99,,2013-01-13 03:33:00,
2013-01-12 19:43:00,36.0,-99.9,30.35,East,95,8.0,9.0,-999,-99.99,,,-99.99,,2013-01-13 03:43:00,
2013-01-12 19:53:00,36.0,-99.9,30.35,East,100,9.0,11.0,-999,-99.99,,,-99.99,,2013-01-13 03:53:00,
2013-01-12 20:03:00,35.0,-99.9,30.36,East,97,8.0,10.0,-999,-99.99,,,-99.99,,2013-01-13 04:03:00,
2013-01-12 20:12:00,35.0,-99.9,30.36,East,100,10.0,11.0,-999,-99.99,,,-99.99,,2013-01-13 04:12:00,
2013-01-12 20:22:00,35.0,-99.9,30.36,East,100,10.0,12.0,-999,-99.99,,,-99.99,,2013-01-13 04:22:00,
2013-01-12 20:33:00,35.0,-99.9,30.36,East,101,9.0,11.0,-999,-99.99,,,-99.99,,2013-01-13 04:33:00,
2013-01-12 20:43:00,34.0,-99.9,30.36,East,99,9.0,10.0,-999,-99.99,,,-99.99,,2013-01-13 04:43:00,
2013-01-12 20:53:00,34.0,-99.9,30.36,East,99,8.0,11.0,-999,-99.99,,,-99.99,,2013-01-13 04:53:00,
2013-01-12 21:03:00,34.0,-99.9,30.36,East,101,9.0,11.0,-999,-99.99,,,-99.99,,2013-01-13 05:03:00,
2013-01-12 21:12:00,34.0,-99.9,30.37,ESE,103,9.0,11.0,-999,-99.99,,,-99.99,,2013-01-13 05:12:00,
2013-01-12 21:23:00,34.0,-99.9,30.37,ESE,104,8.0,9.0,-999,-99.99,,,-99.99,,2013-01-13 05:23:00,
2013-01-12 21:33:00,34.0,-99.9,30.37,East,93,6.0,9.0,-999,-99.99,,,-99.99,,2013-01-13 05:33:00,
2013-01-12 21:42:00,34.0,-99.9,30.38,East,100,8.0,10.0,-999,-99.99,,,-99.99,,2013-01-13 05:42:00,
2013-01-12 21:53:00,34.0,-99.9,30.38,East,99,9.0,10.0,-999,-99.99,,,-99.99,,2013-01-13 05:53:00,
2013-01-12 22:03:00,34.0,-99.9,30.38,East,96,9.0,11.0,-999,-99.99,,,-99.99,,2013-01-13 06:03:00,
2013-01-12 22:12:00,34.0,-99.9,30.38,East,98,9.0,11.0,-999,-99.99,,,-99.99,,2013-01-13 06:12:00,
2013-01-12 22:22:00,33.0,-99.9,30.37,East,99,11.0,12.0,-999,-99.99,,,-99.99,,2013-01-13 06:22:00,
2013-01-12 22:33:00,33.0,-99.9,30.37,East,99,9.0,12.0,-999,-99.99,,,-99.99,,2013-01-13 06:33:00,
2013-01-12 22:43:00,33.0,-99.9,30.38,ESE,102,10.0,11.0,-999,-99.99,,,-99.99,,2013-01-13 06:43:00,
2013-01-12 22:53:00,33.0,-99.9,30.38,East,100,9.0,11.0,-999,-99.99,,,-99.99,,2013-01-13 06:53:00,
2013-01-12 23:02:00,34.0,-99.9,30.38,East,100,9.0,11.0,-999,-99.99,,,-99.99,,2013-01-13 07:02:00,
2013-01-12 23:12:00,33.0,-99.9,30.39,East,100,10.0,11.0,-999,-99.99,,,-99.99,,2013-01-13 07:12:00,
2013-01-12 23:22:00,34.0,-99.9,30.39,ESE,102,11.0,13.0,-999,-99.99,,,-99.99,,2013-01-13 07:22:00,
2013-01-12 23:33:00,33.0,-99.9,30.39,ESE,102,10.0,12.0,-999,-99.99,,,-99.99,,2013-01-13 07:33:00,
2013-01-12 23:42:00,33.0,-99.9,30.39,ESE,104,10.0,12.0,-999,-99.99,,,-99.99,,2013-01-13 07:42:00,
2013-01-12 23:53:00,33.0,-99.9,30.39,ESE,104,11.0,12.0,-999,-99.99,,,-99.99,,2013-01-13 07:53:00,